sensor_id;sensor_type;location;lat;lon;timestamp;P1;durP1;ratioP1;P2;durP2;ratioP2
72235;SDS011;60146;52.498;13.462;2024-02-21T00:00:37;20.10;;;3.70;;
72235;SDS011;60146;52.498;13.462;2024-02-21T00:03:04;13.27;;;3.60;;
72235;SDS011;60146;52.498;13.462;2024-02-21T00:05:30;13.00;;;3.77;;
72235;SDS011;60146;52.498;13.462;2024-02-21T00:07:55;17.00;;;4.10;;
72235;SDS011;60146;52.498;13.462;2024-02-21T00:10:21;15.40;;;3.60;;
72235;SDS011;60146;52.498;13.462;2024-02-21T00:12:46;16.07;;;3.77;;
72235;SDS011;60146;52.498;13.462;2024-02-21T00:15:12;14.27;;;3.50;;
72235;SDS011;60146;52.498;13.462;2024-02-21T00:17:37;16.97;;;3.37;;
72235;SDS011;60146;52.498;13.462;2024-02-21T00:20:02;16.07;;;3.03;;
72235;SDS011;60146;52.498;13.462;2024-02-21T00:22:28;18.57;;;3.63;;
72235;SDS011;60146;52.498;13.462;2024-02-21T00:24:56;19.13;;;3.80;;
72235;SDS011;60146;52.498;13.462;2024-02-21T00:27:24;12.20;;;3.53;;
72235;SDS011;60146;52.498;13.462;2024-02-21T00:29:49;17.20;;;3.57;;
72235;SDS011;60146;52.498;13.462;2024-02-21T00:32:15;12.87;;;3.50;;
72235;SDS011;60146;52.498;13.462;2024-02-21T00:34:40;14.07;;;3.30;;
72235;SDS011;60146;52.498;13.462;2024-02-21T00:37:06;14.50;;;3.20;;
72235;SDS011;60146;52.498;13.462;2024-02-21T00:39:37;13.43;;;3.40;;
72235;SDS011;60146;52.498;13.462;2024-02-21T00:42:03;12.57;;;3.60;;
72235;SDS011;60146;52.498;13.462;2024-02-21T00:44:29;17.83;;;3.57;;
72235;SDS011;60146;52.498;13.462;2024-02-21T00:46:55;11.87;;;3.20;;
72235;SDS011;60146;52.498;13.462;2024-02-21T00:49:20;9.03;;;3.00;;
72235;SDS011;60146;52.498;13.462;2024-02-21T00:51:46;16.10;;;4.07;;
72235;SDS011;60146;52.498;13.462;2024-02-21T00:54:12;12.17;;;3.00;;
72235;SDS011;60146;52.498;13.462;2024-02-21T00:56:37;14.70;;;3.23;;
72235;SDS011;60146;52.498;13.462;2024-02-21T00:59:02;13.60;;;2.93;;
72235;SDS011;60146;52.498;13.462;2024-02-21T01:01:28;6.67;;;2.73;;
72235;SDS011;60146;52.498;13.462;2024-02-21T01:03:53;10.97;;;2.83;;
72235;SDS011;60146;52.498;13.462;2024-02-21T01:06:19;13.40;;;3.03;;
72235;SDS011;60146;52.498;13.462;2024-02-21T01:08:46;11.00;;;3.13;;
72235;SDS011;60146;52.498;13.462;2024-02-21T01:11:14;9.05;;;2.65;;
72235;SDS011;60146;52.498;13.462;2024-02-21T01:13:43;15.20;;;3.20;;
72235;SDS011;60146;52.498;13.462;2024-02-21T01:16:09;11.30;;;3.20;;
72235;SDS011;60146;52.498;13.462;2024-02-21T01:18:34;13.47;;;3.07;;
72235;SDS011;60146;52.498;13.462;2024-02-21T01:21:02;11.17;;;3.40;;
72235;SDS011;60146;52.498;13.462;2024-02-21T01:23:27;15.33;;;2.90;;
72235;SDS011;60146;52.498;13.462;2024-02-21T01:25:53;10.20;;;2.97;;
72235;SDS011;60146;52.498;13.462;2024-02-21T01:28:19;10.93;;;2.67;;
72235;SDS011;60146;52.498;13.462;2024-02-21T01:30:44;11.27;;;2.90;;
72235;SDS011;60146;52.498;13.462;2024-02-21T01:33:09;11.60;;;2.80;;
72235;SDS011;60146;52.498;13.462;2024-02-21T01:35:35;16.60;;;2.97;;
72235;SDS011;60146;52.498;13.462;2024-02-21T01:38:01;13.00;;;2.97;;
72235;SDS011;60146;52.498;13.462;2024-02-21T01:40:27;9.67;;;2.90;;
72235;SDS011;60146;52.498;13.462;2024-02-21T01:42:54;10.87;;;2.67;;
72235;SDS011;60146;52.498;13.462;2024-02-21T01:45:20;12.83;;;2.83;;
72235;SDS011;60146;52.498;13.462;2024-02-21T01:47:46;16.77;;;2.90;;
72235;SDS011;60146;52.498;13.462;2024-02-21T01:50:12;11.23;;;3.00;;
72235;SDS011;60146;52.498;13.462;2024-02-21T01:52:39;12.07;;;2.80;;
72235;SDS011;60146;52.498;13.462;2024-02-21T01:55:05;12.77;;;2.97;;
72235;SDS011;60146;52.498;13.462;2024-02-21T01:57:31;11.07;;;2.97;;
72235;SDS011;60146;52.498;13.462;2024-02-21T01:59:57;8.77;;;3.10;;
72235;SDS011;60146;52.498;13.462;2024-02-21T02:02:22;13.83;;;2.70;;
72235;SDS011;60146;52.498;13.462;2024-02-21T02:04:48;12.43;;;2.80;;
72235;SDS011;60146;52.498;13.462;2024-02-21T02:07:14;16.53;;;3.20;;
72235;SDS011;60146;52.498;13.462;2024-02-21T02:09:39;12.13;;;3.13;;
72235;SDS011;60146;52.498;13.462;2024-02-21T02:12:04;12.57;;;3.07;;
72235;SDS011;60146;52.498;13.462;2024-02-21T02:14:30;11.73;;;2.87;;
72235;SDS011;60146;52.498;13.462;2024-02-21T02:16:56;9.43;;;2.80;;
72235;SDS011;60146;52.498;13.462;2024-02-21T02:19:21;16.67;;;3.03;;
72235;SDS011;60146;52.498;13.462;2024-02-21T02:21:49;10.43;;;2.73;;
72235;SDS011;60146;52.498;13.462;2024-02-21T02:24:20;18.00;;;3.30;;
72235;SDS011;60146;52.498;13.462;2024-02-21T02:26:46;9.30;;;2.60;;
72235;SDS011;60146;52.498;13.462;2024-02-21T02:29:12;11.33;;;2.97;;
72235;SDS011;60146;52.498;13.462;2024-02-21T02:31:37;13.67;;;3.10;;
72235;SDS011;60146;52.498;13.462;2024-02-21T02:34:03;12.43;;;2.90;;
72235;SDS011;60146;52.498;13.462;2024-02-21T02:36:30;14.37;;;3.00;;
72235;SDS011;60146;52.498;13.462;2024-02-21T02:38:58;9.83;;;3.27;;
72235;SDS011;60146;52.498;13.462;2024-02-21T02:41:23;11.87;;;3.00;;
72235;SDS011;60146;52.498;13.462;2024-02-21T02:43:48;12.43;;;3.00;;
72235;SDS011;60146;52.498;13.462;2024-02-21T02:46:14;13.73;;;3.20;;
72235;SDS011;60146;52.498;13.462;2024-02-21T02:48:39;8.90;;;2.63;;
72235;SDS011;60146;52.498;13.462;2024-02-21T02:51:04;18.17;;;3.07;;
72235;SDS011;60146;52.498;13.462;2024-02-21T02:53:30;14.47;;;3.27;;
72235;SDS011;60146;52.498;13.462;2024-02-21T02:55:55;10.83;;;2.83;;
72235;SDS011;60146;52.498;13.462;2024-02-21T02:58:21;12.33;;;3.37;;
72235;SDS011;60146;52.498;13.462;2024-02-21T03:00:46;14.30;;;3.10;;
72235;SDS011;60146;52.498;13.462;2024-02-21T03:03:11;11.47;;;3.47;;
72235;SDS011;60146;52.498;13.462;2024-02-21T03:05:37;13.80;;;3.03;;
72235;SDS011;60146;52.498;13.462;2024-02-21T03:08:02;17.33;;;3.30;;
72235;SDS011;60146;52.498;13.462;2024-02-21T03:10:32;11.88;;;3.10;;
72235;SDS011;60146;52.498;13.462;2024-02-21T03:12:57;15.20;;;3.53;;
72235;SDS011;60146;52.498;13.462;2024-02-21T03:15:23;12.00;;;3.43;;
72235;SDS011;60146;52.498;13.462;2024-02-21T03:17:49;12.93;;;3.30;;
72235;SDS011;60146;52.498;13.462;2024-02-21T03:20:14;17.20;;;3.13;;
72235;SDS011;60146;52.498;13.462;2024-02-21T03:22:40;15.73;;;3.70;;
72235;SDS011;60146;52.498;13.462;2024-02-21T03:25:06;13.17;;;3.30;;
72235;SDS011;60146;52.498;13.462;2024-02-21T03:27:32;13.70;;;3.10;;
72235;SDS011;60146;52.498;13.462;2024-02-21T03:29:58;13.77;;;3.40;;
72235;SDS011;60146;52.498;13.462;2024-02-21T03:32:23;14.33;;;3.50;;
72235;SDS011;60146;52.498;13.462;2024-02-21T03:34:49;17.80;;;3.60;;
72235;SDS011;60146;52.498;13.462;2024-02-21T03:37:14;11.67;;;3.73;;
72235;SDS011;60146;52.498;13.462;2024-02-21T03:39:40;13.80;;;4.10;;
72235;SDS011;60146;52.498;13.462;2024-02-21T03:42:05;10.83;;;3.40;;
72235;SDS011;60146;52.498;13.462;2024-02-21T03:44:31;10.43;;;3.43;;
72235;SDS011;60146;52.498;13.462;2024-02-21T03:46:57;16.00;;;3.73;;
72235;SDS011;60146;52.498;13.462;2024-02-21T03:49:23;17.47;;;3.60;;
72235;SDS011;60146;52.498;13.462;2024-02-21T03:51:48;12.43;;;3.70;;
72235;SDS011;60146;52.498;13.462;2024-02-21T03:54:13;14.37;;;4.20;;
72235;SDS011;60146;52.498;13.462;2024-02-21T03:56:45;15.73;;;4.20;;
72235;SDS011;60146;52.498;13.462;2024-02-21T03:59:12;22.00;;;4.47;;
72235;SDS011;60146;52.498;13.462;2024-02-21T04:01:38;12.30;;;4.07;;
72235;SDS011;60146;52.498;13.462;2024-02-21T04:04:03;17.73;;;3.93;;
72235;SDS011;60146;52.498;13.462;2024-02-21T04:06:29;15.10;;;3.97;;
72235;SDS011;60146;52.498;13.462;2024-02-21T04:08:54;13.53;;;3.90;;
72235;SDS011;60146;52.498;13.462;2024-02-21T04:11:20;18.90;;;4.40;;
72235;SDS011;60146;52.498;13.462;2024-02-21T04:13:45;13.23;;;4.13;;
72235;SDS011;60146;52.498;13.462;2024-02-21T04:16:13;13.33;;;4.17;;
72235;SDS011;60146;52.498;13.462;2024-02-21T04:18:39;19.10;;;4.60;;
72235;SDS011;60146;52.498;13.462;2024-02-21T04:21:05;16.77;;;3.80;;
72235;SDS011;60146;52.498;13.462;2024-02-21T04:23:30;8.00;;;3.47;;
72235;SDS011;60146;52.498;13.462;2024-02-21T04:25:55;12.97;;;3.97;;
72235;SDS011;60146;52.498;13.462;2024-02-21T04:28:21;19.13;;;4.17;;
72235;SDS011;60146;52.498;13.462;2024-02-21T04:30:46;13.27;;;3.87;;
72235;SDS011;60146;52.498;13.462;2024-02-21T04:33:11;13.17;;;3.87;;
72235;SDS011;60146;52.498;13.462;2024-02-21T04:35:37;12.80;;;4.00;;
72235;SDS011;60146;52.498;13.462;2024-02-21T04:38:03;11.30;;;3.57;;
72235;SDS011;60146;52.498;13.462;2024-02-21T04:40:29;11.83;;;3.37;;
72235;SDS011;60146;52.498;13.462;2024-02-21T04:42:54;15.23;;;4.10;;
72235;SDS011;60146;52.498;13.462;2024-02-21T04:45:19;16.70;;;4.37;;
72235;SDS011;60146;52.498;13.462;2024-02-21T04:47:45;20.13;;;4.40;;
72235;SDS011;60146;52.498;13.462;2024-02-21T04:50:10;18.23;;;3.60;;
72235;SDS011;60146;52.498;13.462;2024-02-21T04:52:35;15.77;;;3.90;;
72235;SDS011;60146;52.498;13.462;2024-02-21T04:55:01;14.57;;;4.07;;
72235;SDS011;60146;52.498;13.462;2024-02-21T04:57:26;13.77;;;4.17;;
72235;SDS011;60146;52.498;13.462;2024-02-21T04:59:51;17.73;;;4.50;;
72235;SDS011;60146;52.498;13.462;2024-02-21T05:02:17;11.83;;;4.07;;
72235;SDS011;60146;52.498;13.462;2024-02-21T05:04:45;12.43;;;3.83;;
72235;SDS011;60146;52.498;13.462;2024-02-21T05:07:10;13.03;;;4.00;;
72235;SDS011;60146;52.498;13.462;2024-02-21T05:09:36;13.53;;;4.13;;
72235;SDS011;60146;52.498;13.462;2024-02-21T05:12:02;18.83;;;4.20;;
72235;SDS011;60146;52.498;13.462;2024-02-21T05:14:27;14.03;;;4.37;;
72235;SDS011;60146;52.498;13.462;2024-02-21T05:16:53;16.33;;;4.37;;
72235;SDS011;60146;52.498;13.462;2024-02-21T05:19:18;12.80;;;4.20;;
72235;SDS011;60146;52.498;13.462;2024-02-21T05:21:44;16.67;;;4.23;;
72235;SDS011;60146;52.498;13.462;2024-02-21T05:24:10;13.50;;;3.87;;
72235;SDS011;60146;52.498;13.462;2024-02-21T05:26:35;16.70;;;4.23;;
72235;SDS011;60146;52.498;13.462;2024-02-21T05:29:01;14.83;;;4.17;;
72235;SDS011;60146;52.498;13.462;2024-02-21T05:31:26;18.63;;;4.50;;
72235;SDS011;60146;52.498;13.462;2024-02-21T05:34:19;18.20;;;4.57;;
72235;SDS011;60146;52.498;13.462;2024-02-21T05:36:46;16.83;;;4.13;;
72235;SDS011;60146;52.498;13.462;2024-02-21T05:39:11;11.60;;;3.90;;
72235;SDS011;60146;52.498;13.462;2024-02-21T05:41:37;13.33;;;3.90;;
72235;SDS011;60146;52.498;13.462;2024-02-21T05:44:02;19.70;;;4.20;;
72235;SDS011;60146;52.498;13.462;2024-02-21T05:46:28;15.00;;;3.97;;
72235;SDS011;60146;52.498;13.462;2024-02-21T05:48:53;12.10;;;3.80;;
72235;SDS011;60146;52.498;13.462;2024-02-21T05:51:19;14.13;;;3.67;;
72235;SDS011;60146;52.498;13.462;2024-02-21T05:53:44;12.20;;;3.90;;
72235;SDS011;60146;52.498;13.462;2024-02-21T05:56:10;13.17;;;4.33;;
72235;SDS011;60146;52.498;13.462;2024-02-21T05:58:36;20.73;;;4.00;;
72235;SDS011;60146;52.498;13.462;2024-02-21T06:01:02;19.13;;;4.07;;
72235;SDS011;60146;52.498;13.462;2024-02-21T06:03:28;15.60;;;4.13;;
72235;SDS011;60146;52.498;13.462;2024-02-21T06:05:56;16.30;;;4.20;;
72235;SDS011;60146;52.498;13.462;2024-02-21T06:08:22;17.17;;;4.30;;
72235;SDS011;60146;52.498;13.462;2024-02-21T06:10:47;18.70;;;4.43;;
72235;SDS011;60146;52.498;13.462;2024-02-21T06:13:19;18.50;;;4.70;;
72235;SDS011;60146;52.498;13.462;2024-02-21T06:15:46;17.30;;;4.60;;
72235;SDS011;60146;52.498;13.462;2024-02-21T06:18:11;20.03;;;4.67;;
72235;SDS011;60146;52.498;13.462;2024-02-21T06:20:37;17.37;;;5.00;;
72235;SDS011;60146;52.498;13.462;2024-02-21T06:23:05;12.20;;;3.90;;
72235;SDS011;60146;52.498;13.462;2024-02-21T06:25:31;13.77;;;4.23;;
72235;SDS011;60146;52.498;13.462;2024-02-21T06:27:56;19.37;;;4.23;;
72235;SDS011;60146;52.498;13.462;2024-02-21T06:30:21;17.40;;;4.50;;
72235;SDS011;60146;52.498;13.462;2024-02-21T06:32:47;15.80;;;4.80;;
72235;SDS011;60146;52.498;13.462;2024-02-21T06:35:12;12.07;;;4.03;;
72235;SDS011;60146;52.498;13.462;2024-02-21T06:37:38;18.90;;;4.27;;
72235;SDS011;60146;52.498;13.462;2024-02-21T06:40:03;15.20;;;4.27;;
72235;SDS011;60146;52.498;13.462;2024-02-21T06:42:29;13.00;;;4.43;;
72235;SDS011;60146;52.498;13.462;2024-02-21T06:44:55;16.90;;;4.57;;
72235;SDS011;60146;52.498;13.462;2024-02-21T06:47:21;14.23;;;5.20;;
72235;SDS011;60146;52.498;13.462;2024-02-21T06:49:50;17.33;;;4.70;;
72235;SDS011;60146;52.498;13.462;2024-02-21T06:52:18;14.83;;;4.80;;
72235;SDS011;60146;52.498;13.462;2024-02-21T06:54:45;18.03;;;4.37;;
72235;SDS011;60146;52.498;13.462;2024-02-21T06:57:12;17.27;;;4.70;;
72235;SDS011;60146;52.498;13.462;2024-02-21T06:59:38;16.10;;;4.40;;
72235;SDS011;60146;52.498;13.462;2024-02-21T07:02:04;15.97;;;4.37;;
72235;SDS011;60146;52.498;13.462;2024-02-21T07:04:29;17.17;;;4.43;;
72235;SDS011;60146;52.498;13.462;2024-02-21T07:06:55;17.90;;;4.77;;
72235;SDS011;60146;52.498;13.462;2024-02-21T07:09:20;15.13;;;4.53;;
72235;SDS011;60146;52.498;13.462;2024-02-21T07:11:46;23.60;;;4.83;;
72235;SDS011;60146;52.498;13.462;2024-02-21T07:14:11;13.37;;;4.17;;
72235;SDS011;60146;52.498;13.462;2024-02-21T07:16:36;14.67;;;4.13;;
72235;SDS011;60146;52.498;13.462;2024-02-21T07:19:02;12.40;;;4.53;;
72235;SDS011;60146;52.498;13.462;2024-02-21T07:21:27;14.90;;;4.30;;
72235;SDS011;60146;52.498;13.462;2024-02-21T07:23:53;15.90;;;4.50;;
72235;SDS011;60146;52.498;13.462;2024-02-21T07:26:18;16.27;;;4.53;;
72235;SDS011;60146;52.498;13.462;2024-02-21T07:28:44;16.03;;;5.13;;
72235;SDS011;60146;52.498;13.462;2024-02-21T07:31:09;13.97;;;4.60;;
72235;SDS011;60146;52.498;13.462;2024-02-21T07:33:34;15.00;;;4.77;;
72235;SDS011;60146;52.498;13.462;2024-02-21T07:36:00;17.80;;;5.13;;
72235;SDS011;60146;52.498;13.462;2024-02-21T07:38:26;14.03;;;4.80;;
72235;SDS011;60146;52.498;13.462;2024-02-21T07:40:51;17.50;;;4.97;;
72235;SDS011;60146;52.498;13.462;2024-02-21T07:43:17;13.87;;;4.33;;
72235;SDS011;60146;52.498;13.462;2024-02-21T07:45:42;12.77;;;4.03;;
72235;SDS011;60146;52.498;13.462;2024-02-21T07:48:07;16.23;;;4.33;;
72235;SDS011;60146;52.498;13.462;2024-02-21T07:50:33;12.40;;;4.57;;
72235;SDS011;60146;52.498;13.462;2024-02-21T07:52:58;15.87;;;3.90;;
72235;SDS011;60146;52.498;13.462;2024-02-21T07:55:24;14.17;;;3.93;;
72235;SDS011;60146;52.498;13.462;2024-02-21T07:57:49;11.10;;;3.43;;
72235;SDS011;60146;52.498;13.462;2024-02-21T08:00:15;13.00;;;4.17;;
72235;SDS011;60146;52.498;13.462;2024-02-21T08:02:44;10.52;;;3.72;;
72235;SDS011;60146;52.498;13.462;2024-02-21T08:05:09;11.77;;;4.37;;
72235;SDS011;60146;52.498;13.462;2024-02-21T08:07:37;11.17;;;3.90;;
72235;SDS011;60146;52.498;13.462;2024-02-21T08:10:02;12.70;;;4.00;;
72235;SDS011;60146;52.498;13.462;2024-02-21T08:12:28;12.90;;;4.07;;
72235;SDS011;60146;52.498;13.462;2024-02-21T08:14:53;14.70;;;4.53;;
72235;SDS011;60146;52.498;13.462;2024-02-21T08:17:19;10.43;;;3.83;;
72235;SDS011;60146;52.498;13.462;2024-02-21T08:19:44;11.73;;;4.20;;
72235;SDS011;60146;52.498;13.462;2024-02-21T08:22:09;12.07;;;4.30;;
72235;SDS011;60146;52.498;13.462;2024-02-21T08:24:35;16.07;;;3.80;;
72235;SDS011;60146;52.498;13.462;2024-02-21T08:27:00;13.00;;;3.90;;
72235;SDS011;60146;52.498;13.462;2024-02-21T08:29:26;13.97;;;4.27;;
72235;SDS011;60146;52.498;13.462;2024-02-21T08:31:52;11.63;;;3.90;;
72235;SDS011;60146;52.498;13.462;2024-02-21T08:34:18;11.30;;;4.50;;
72235;SDS011;60146;52.498;13.462;2024-02-21T08:36:44;13.63;;;4.77;;
72235;SDS011;60146;52.498;13.462;2024-02-21T08:39:09;11.43;;;4.73;;
72235;SDS011;60146;52.498;13.462;2024-02-21T08:41:34;16.43;;;4.10;;
72235;SDS011;60146;52.498;13.462;2024-02-21T08:44:03;11.77;;;4.20;;
72235;SDS011;60146;52.498;13.462;2024-02-21T08:46:29;13.40;;;4.10;;
72235;SDS011;60146;52.498;13.462;2024-02-21T08:48:54;14.47;;;4.37;;
72235;SDS011;60146;52.498;13.462;2024-02-21T08:51:20;11.27;;;4.30;;
72235;SDS011;60146;52.498;13.462;2024-02-21T08:53:46;14.73;;;4.47;;
72235;SDS011;60146;52.498;13.462;2024-02-21T08:56:12;17.53;;;5.13;;
72235;SDS011;60146;52.498;13.462;2024-02-21T08:58:38;13.77;;;4.27;;
72235;SDS011;60146;52.498;13.462;2024-02-21T09:01:05;11.80;;;4.50;;
72235;SDS011;60146;52.498;13.462;2024-02-21T09:03:32;16.77;;;4.63;;
72235;SDS011;60146;52.498;13.462;2024-02-21T09:05:58;14.90;;;4.47;;
72235;SDS011;60146;52.498;13.462;2024-02-21T09:08:24;17.50;;;5.23;;
72235;SDS011;60146;52.498;13.462;2024-02-21T09:10:50;11.67;;;4.57;;
72235;SDS011;60146;52.498;13.462;2024-02-21T09:13:15;12.93;;;4.40;;
72235;SDS011;60146;52.498;13.462;2024-02-21T09:15:40;16.07;;;5.03;;
72235;SDS011;60146;52.498;13.462;2024-02-21T09:18:07;17.63;;;4.87;;
72235;SDS011;60146;52.498;13.462;2024-02-21T09:20:32;14.40;;;4.90;;
72235;SDS011;60146;52.498;13.462;2024-02-21T09:22:58;15.57;;;4.40;;
72235;SDS011;60146;52.498;13.462;2024-02-21T09:25:23;17.67;;;5.27;;
72235;SDS011;60146;52.498;13.462;2024-02-21T09:27:48;13.00;;;5.57;;
72235;SDS011;60146;52.498;13.462;2024-02-21T09:30:14;14.47;;;5.33;;
72235;SDS011;60146;52.498;13.462;2024-02-21T09:32:39;15.17;;;5.43;;
72235;SDS011;60146;52.498;13.462;2024-02-21T09:35:04;14.43;;;4.83;;
72235;SDS011;60146;52.498;13.462;2024-02-21T09:37:30;18.10;;;5.20;;
72235;SDS011;60146;52.498;13.462;2024-02-21T09:39:56;20.23;;;5.97;;
72235;SDS011;60146;52.498;13.462;2024-02-21T09:42:22;20.73;;;6.03;;
72235;SDS011;60146;52.498;13.462;2024-02-21T09:44:59;18.67;;;5.50;;
72235;SDS011;60146;52.498;13.462;2024-02-21T09:47:30;16.60;;;5.50;;
72235;SDS011;60146;52.498;13.462;2024-02-21T09:50:19;20.77;;;5.53;;
72235;SDS011;60146;52.498;13.462;2024-02-21T09:52:46;15.73;;;5.57;;
72235;SDS011;60146;52.498;13.462;2024-02-21T09:55:13;20.23;;;5.60;;
72235;SDS011;60146;52.498;13.462;2024-02-21T09:57:40;16.20;;;5.50;;
72235;SDS011;60146;52.498;13.462;2024-02-21T10:00:06;16.53;;;5.20;;
72235;SDS011;60146;52.498;13.462;2024-02-21T10:02:34;14.57;;;5.20;;
72235;SDS011;60146;52.498;13.462;2024-02-21T10:05:00;13.10;;;4.73;;
72235;SDS011;60146;52.498;13.462;2024-02-21T10:07:25;13.80;;;4.80;;
72235;SDS011;60146;52.498;13.462;2024-02-21T10:10:03;11.80;;;4.73;;
72235;SDS011;60146;52.498;13.462;2024-02-21T10:12:29;14.50;;;5.07;;
72235;SDS011;60146;52.498;13.462;2024-02-21T10:15:01;18.60;;;5.20;;
72235;SDS011;60146;52.498;13.462;2024-02-21T10:17:27;16.77;;;5.33;;
72235;SDS011;60146;52.498;13.462;2024-02-21T10:19:52;15.17;;;5.10;;
72235;SDS011;60146;52.498;13.462;2024-02-21T10:22:18;12.00;;;4.27;;
72235;SDS011;60146;52.498;13.462;2024-02-21T10:24:45;11.63;;;5.20;;
72235;SDS011;60146;52.498;13.462;2024-02-21T10:27:10;13.73;;;4.90;;
72235;SDS011;60146;52.498;13.462;2024-02-21T10:29:36;11.90;;;4.53;;
72235;SDS011;60146;52.498;13.462;2024-02-21T10:32:09;13.70;;;5.27;;
72235;SDS011;60146;52.498;13.462;2024-02-21T10:34:36;13.20;;;5.03;;
72235;SDS011;60146;52.498;13.462;2024-02-21T10:39:35;13.90;;;4.67;;
72235;SDS011;60146;52.498;13.462;2024-02-21T10:42:02;14.23;;;4.53;;
72235;SDS011;60146;52.498;13.462;2024-02-21T10:46:58;11.17;;;4.33;;
72235;SDS011;60146;52.498;13.462;2024-02-21T10:49:27;11.43;;;4.60;;
72235;SDS011;60146;52.498;13.462;2024-02-21T10:52:02;15.17;;;4.93;;
72235;SDS011;60146;52.498;13.462;2024-02-21T10:54:39;11.87;;;4.60;;
72235;SDS011;60146;52.498;13.462;2024-02-21T10:57:12;13.90;;;4.73;;
72235;SDS011;60146;52.498;13.462;2024-02-21T10:59:39;13.93;;;4.87;;
72235;SDS011;60146;52.498;13.462;2024-02-21T11:02:05;12.27;;;4.93;;
72235;SDS011;60146;52.498;13.462;2024-02-21T11:04:31;13.67;;;4.67;;
72235;SDS011;60146;52.498;13.462;2024-02-21T11:07:01;9.93;;;4.28;;
72235;SDS011;60146;52.498;13.462;2024-02-21T11:09:31;11.77;;;4.55;;
72235;SDS011;60146;52.498;13.462;2024-02-21T11:12:03;9.60;;;4.38;;
72235;SDS011;60146;52.498;13.462;2024-02-21T11:14:30;12.00;;;4.65;;
72235;SDS011;60146;52.498;13.462;2024-02-21T11:17:14;17.77;;;5.03;;
72235;SDS011;60146;52.498;13.462;2024-02-21T11:19:40;11.93;;;4.20;;
72235;SDS011;60146;52.498;13.462;2024-02-21T11:22:06;9.23;;;4.10;;
72235;SDS011;60146;52.498;13.462;2024-02-21T11:24:43;11.63;;;4.43;;
72235;SDS011;60146;52.498;13.462;2024-02-21T11:27:15;12.80;;;4.40;;
72235;SDS011;60146;52.498;13.462;2024-02-21T11:29:45;9.10;;;3.80;;
72235;SDS011;60146;52.498;13.462;2024-02-21T11:32:11;8.98;;;3.67;;
72235;SDS011;60146;52.498;13.462;2024-02-21T11:34:40;8.73;;;3.70;;
72235;SDS011;60146;52.498;13.462;2024-02-21T11:37:14;9.87;;;4.00;;
72235;SDS011;60146;52.498;13.462;2024-02-21T11:39:41;8.07;;;3.50;;
72235;SDS011;60146;52.498;13.462;2024-02-21T11:42:07;8.77;;;3.77;;
72235;SDS011;60146;52.498;13.462;2024-02-21T11:44:36;6.00;;;3.60;;
72235;SDS011;60146;52.498;13.462;2024-02-21T11:47:07;6.57;;;3.30;;
72235;SDS011;60146;52.498;13.462;2024-02-21T11:49:36;6.73;;;3.07;;
72235;SDS011;60146;52.498;13.462;2024-02-21T11:52:10;7.30;;;3.53;;
72235;SDS011;60146;52.498;13.462;2024-02-21T11:54:36;6.87;;;3.10;;
72235;SDS011;60146;52.498;13.462;2024-02-21T11:57:02;9.17;;;3.17;;
72235;SDS011;60146;52.498;13.462;2024-02-21T11:59:32;10.43;;;3.33;;
72235;SDS011;60146;52.498;13.462;2024-02-21T12:01:58;16.40;;;3.73;;
72235;SDS011;60146;52.498;13.462;2024-02-21T12:04:39;7.93;;;3.20;;
72235;SDS011;60146;52.498;13.462;2024-02-21T12:07:06;8.10;;;2.63;;
72235;SDS011;60146;52.498;13.462;2024-02-21T12:09:33;4.97;;;2.50;;
72235;SDS011;60146;52.498;13.462;2024-02-21T12:12:03;7.88;;;2.80;;
72235;SDS011;60146;52.498;13.462;2024-02-21T12:14:30;8.48;;;3.28;;
72235;SDS011;60146;52.498;13.462;2024-02-21T12:16:56;5.38;;;2.78;;
72235;SDS011;60146;52.498;13.462;2024-02-21T12:19:22;6.13;;;2.75;;
72235;SDS011;60146;52.498;13.462;2024-02-21T12:21:48;6.03;;;2.63;;
72235;SDS011;60146;52.498;13.462;2024-02-21T12:24:22;6.03;;;2.65;;
72235;SDS011;60146;52.498;13.462;2024-02-21T12:26:50;5.32;;;2.58;;
72235;SDS011;60146;52.498;13.462;2024-02-21T12:29:17;5.45;;;2.40;;
72235;SDS011;60146;52.498;13.462;2024-02-21T12:31:43;7.70;;;2.45;;
72235;SDS011;60146;52.498;13.462;2024-02-21T12:34:08;4.70;;;2.60;;
72235;SDS011;60146;52.498;13.462;2024-02-21T12:36:36;6.13;;;2.60;;
72235;SDS011;60146;52.498;13.462;2024-02-21T12:39:07;7.87;;;2.43;;
72235;SDS011;60146;52.498;13.462;2024-02-21T12:41:33;5.23;;;2.87;;
72235;SDS011;60146;52.498;13.462;2024-02-21T12:44:04;5.75;;;2.67;;
72235;SDS011;60146;52.498;13.462;2024-02-21T12:46:32;6.65;;;2.53;;
72235;SDS011;60146;52.498;13.462;2024-02-21T12:48:58;7.47;;;2.50;;
72235;SDS011;60146;52.498;13.462;2024-02-21T12:51:28;5.78;;;2.65;;
72235;SDS011;60146;52.498;13.462;2024-02-21T12:53:59;4.45;;;2.10;;
72235;SDS011;60146;52.498;13.462;2024-02-21T12:56:34;5.95;;;2.50;;
72235;SDS011;60146;52.498;13.462;2024-02-21T12:59:03;5.55;;;2.45;;
72235;SDS011;60146;52.498;13.462;2024-02-21T13:01:29;4.75;;;2.35;;
72235;SDS011;60146;52.498;13.462;2024-02-21T13:03:54;4.60;;;1.90;;
72235;SDS011;60146;52.498;13.462;2024-02-21T13:06:22;6.90;;;2.10;;
72235;SDS011;60146;52.498;13.462;2024-02-21T13:08:48;4.30;;;1.80;;
72235;SDS011;60146;52.498;13.462;2024-02-21T13:11:13;4.55;;;1.90;;
72235;SDS011;60146;52.498;13.462;2024-02-21T13:13:39;7.03;;;2.17;;
72235;SDS011;60146;52.498;13.462;2024-02-21T13:16:04;7.13;;;2.17;;
72235;SDS011;60146;52.498;13.462;2024-02-21T13:18:30;6.30;;;2.15;;
72235;SDS011;60146;52.498;13.462;2024-02-21T13:20:57;4.50;;;2.00;;
72235;SDS011;60146;52.498;13.462;2024-02-21T13:23:23;5.60;;;2.00;;
72235;SDS011;60146;52.498;13.462;2024-02-21T13:25:48;8.37;;;2.50;;
72235;SDS011;60146;52.498;13.462;2024-02-21T13:28:14;6.60;;;2.70;;
72235;SDS011;60146;52.498;13.462;2024-02-21T13:30:41;6.00;;;2.20;;
72235;SDS011;60146;52.498;13.462;2024-02-21T13:33:07;7.67;;;2.90;;
72235;SDS011;60146;52.498;13.462;2024-02-21T13:35:32;9.93;;;2.57;;
72235;SDS011;60146;52.498;13.462;2024-02-21T13:37:58;6.73;;;3.00;;
72235;SDS011;60146;52.498;13.462;2024-02-21T13:40:23;7.67;;;2.50;;
72235;SDS011;60146;52.498;13.462;2024-02-21T13:42:50;8.87;;;2.90;;
72235;SDS011;60146;52.498;13.462;2024-02-21T13:45:16;8.33;;;3.20;;
72235;SDS011;60146;52.498;13.462;2024-02-21T13:47:42;8.17;;;2.97;;
72235;SDS011;60146;52.498;13.462;2024-02-21T13:50:07;6.97;;;2.90;;
72235;SDS011;60146;52.498;13.462;2024-02-21T13:52:36;8.70;;;3.03;;
72235;SDS011;60146;52.498;13.462;2024-02-21T13:55:02;8.80;;;2.77;;
72235;SDS011;60146;52.498;13.462;2024-02-21T13:57:28;9.57;;;3.50;;
72235;SDS011;60146;52.498;13.462;2024-02-21T13:59:53;7.43;;;2.57;;
72235;SDS011;60146;52.498;13.462;2024-02-21T14:02:19;12.00;;;2.90;;
72235;SDS011;60146;52.498;13.462;2024-02-21T14:04:44;5.07;;;2.60;;
72235;SDS011;60146;52.498;13.462;2024-02-21T14:07:10;5.13;;;2.50;;
72235;SDS011;60146;52.498;13.462;2024-02-21T14:09:35;10.83;;;2.90;;
72235;SDS011;60146;52.498;13.462;2024-02-21T14:12:01;9.43;;;2.70;;
72235;SDS011;60146;52.498;13.462;2024-02-21T14:14:27;7.13;;;2.70;;
72235;SDS011;60146;52.498;13.462;2024-02-21T14:16:52;8.37;;;2.83;;
72235;SDS011;60146;52.498;13.462;2024-02-21T14:19:18;8.03;;;2.73;;
72235;SDS011;60146;52.498;13.462;2024-02-21T14:21:44;7.10;;;2.50;;
72235;SDS011;60146;52.498;13.462;2024-02-21T14:24:10;8.47;;;2.50;;